Terminal Aerodrome Forecast
Issued by NWS

Home | Current Version | Previous Version | Text Only | Print | Product List | Glossary On
Versions: 1 2 3 4 5 6 7 8 9 10 11
555
FTUS45 KABQ 090520
TAFTCC
TAF
KTCC 090520Z 0906/1006 VRB06KT P6SM FEW250
     FM091700 25009KT P6SM SKC
     FM100130 VRB05KT P6SM SKC=

USA.gov is the U.S. government's official web portal to all federal, state and local government web resources and services.